sensor_id;sensor_type;location;lat;lon;timestamp;pressure;altitude;pressure_sealevel;temperature
73673;BMP280;61972;19.480;-99.240;2023-06-14T00:02:27;77456.06;;;33.35
73673;BMP280;61972;19.480;-99.240;2023-06-14T00:05:11;77477.25;;;33.35
73673;BMP280;61972;19.480;-99.240;2023-06-14T00:07:41;77477.72;;;33.33
73673;BMP280;61972;19.480;-99.240;2023-06-14T00:10:12;77469.78;;;33.33
73673;BMP280;61972;19.480;-99.240;2023-06-14T00:12:39;77463.94;;;33.33
73673;BMP280;61972;19.480;-99.240;2023-06-14T00:15:07;77476.63;;;33.32
73673;BMP280;61972;19.480;-99.240;2023-06-14T00:17:35;77476.63;;;33.32
73673;BMP280;61972;19.480;-99.240;2023-06-14T00:20:03;77475.53;;;33.31
73673;BMP280;61972;19.480;-99.240;2023-06-14T00:22:36;77472.88;;;33.31
73673;BMP280;61972;19.480;-99.240;2023-06-14T00:25:02;77480.81;;;33.31
73673;BMP280;61972;19.480;-99.240;2023-06-14T00:27:29;77485.03;;;33.30
73673;BMP280;61972;19.480;-99.240;2023-06-14T00:29:55;77480.28;;;33.31
73673;BMP280;61972;19.480;-99.240;2023-06-14T00:32:22;77486.59;;;33.29
73673;BMP280;61972;19.480;-99.240;2023-06-14T00:34:51;77488.16;;;33.28
73673;BMP280;61972;19.480;-99.240;2023-06-14T00:37:17;77487.59;;;33.27
73673;BMP280;61972;19.480;-99.240;2023-06-14T00:39:43;77489.69;;;33.27
73673;BMP280;61972;19.480;-99.240;2023-06-14T00:42:10;77493.44;;;33.28
73673;BMP280;61972;19.480;-99.240;2023-06-14T00:44:36;77496.09;;;33.28
73673;BMP280;61972;19.480;-99.240;2023-06-14T00:47:02;77499.19;;;33.26
73673;BMP280;61972;19.480;-99.240;2023-06-14T00:49:29;77500.28;;;33.27
73673;BMP280;61972;19.480;-99.240;2023-06-14T00:51:55;77505.03;;;33.26
73673;BMP280;61972;19.480;-99.240;2023-06-14T00:54:40;77507.59;;;33.24
73673;BMP280;61972;19.480;-99.240;2023-06-14T00:57:07;77501.19;;;33.23
73673;BMP280;61972;19.480;-99.240;2023-06-14T00:59:34;77509.16;;;33.23
73673;BMP280;61972;19.480;-99.240;2023-06-14T01:02:02;77517.63;;;33.23
73673;BMP280;61972;19.480;-99.240;2023-06-14T01:04:28;77514.44;;;33.23
73673;BMP280;61972;19.480;-99.240;2023-06-14T01:07:11;77520.75;;;33.21
73673;BMP280;61972;19.480;-99.240;2023-06-14T01:10:12;77521.75;;;33.20
73673;BMP280;61972;19.480;-99.240;2023-06-14T01:13:05;77531.25;;;33.19
73673;BMP280;61972;19.480;-99.240;2023-06-14T01:15:34;77534.31;;;33.17
73673;BMP280;61972;19.480;-99.240;2023-06-14T01:18:01;77543.84;;;33.16
73673;BMP280;61972;19.480;-99.240;2023-06-14T01:20:37;77543.28;;;33.15
73673;BMP280;61972;19.480;-99.240;2023-06-14T01:23:04;77550.13;;;33.14
73673;BMP280;61972;19.480;-99.240;2023-06-14T01:25:30;77551.16;;;33.13
73673;BMP280;61972;19.480;-99.240;2023-06-14T01:27:59;77558.53;;;33.12
73673;BMP280;61972;19.480;-99.240;2023-06-14T01:30:27;77565.38;;;33.11
73673;BMP280;61972;19.480;-99.240;2023-06-14T01:32:55;77564.84;;;33.11
73673;BMP280;61972;19.480;-99.240;2023-06-14T01:35:22;77572.69;;;33.08
73673;BMP280;61972;19.480;-99.240;2023-06-14T01:37:49;77569.94;;;33.05
73673;BMP280;61972;19.480;-99.240;2023-06-14T01:40:18;77578.31;;;33.03
73673;BMP280;61972;19.480;-99.240;2023-06-14T01:42:46;77579.34;;;33.02
73673;BMP280;61972;19.480;-99.240;2023-06-14T01:45:17;77592.50;;;32.99
73673;BMP280;61972;19.480;-99.240;2023-06-14T01:47:44;77587.06;;;32.97
73673;BMP280;61972;19.480;-99.240;2023-06-14T01:50:11;77600.78;;;32.95
73673;BMP280;61972;19.480;-99.240;2023-06-14T01:52:37;77594.28;;;32.91
73673;BMP280;61972;19.480;-99.240;2023-06-14T01:55:07;77599.47;;;32.88
73673;BMP280;61972;19.480;-99.240;2023-06-14T01:57:33;77612.63;;;32.86
73673;BMP280;61972;19.480;-99.240;2023-06-14T02:00:06;77619.44;;;32.85
73673;BMP280;61972;19.480;-99.240;2023-06-14T02:02:38;77626.31;;;32.84
73673;BMP280;61972;19.480;-99.240;2023-06-14T02:05:08;77629.38;;;32.82
73673;BMP280;61972;19.480;-99.240;2023-06-14T02:07:34;77630.41;;;32.80
73673;BMP280;61972;19.480;-99.240;2023-06-14T02:10:00;77630.28;;;32.78
73673;BMP280;61972;19.480;-99.240;2023-06-14T02:12:26;77628.09;;;32.76
73673;BMP280;61972;19.480;-99.240;2023-06-14T02:15:00;77634.94;;;32.75
73673;BMP280;61972;19.480;-99.240;2023-06-14T02:17:26;77640.69;;;32.73
73673;BMP280;61972;19.480;-99.240;2023-06-14T02:19:52;77647.97;;;32.70
73673;BMP280;61972;19.480;-99.240;2023-06-14T02:22:19;77649.94;;;32.66
73673;BMP280;61972;19.480;-99.240;2023-06-14T02:24:47;77645.66;;;32.65
73673;BMP280;61972;19.480;-99.240;2023-06-14T02:27:13;77650.38;;;32.64
73673;BMP280;61972;19.480;-99.240;2023-06-14T02:29:39;77655.03;;;32.61
73673;BMP280;61972;19.480;-99.240;2023-06-14T02:32:06;77665.50;;;32.59
73673;BMP280;61972;19.480;-99.240;2023-06-14T02:34:35;77670.16;;;32.56
73673;BMP280;61972;19.480;-99.240;2023-06-14T02:37:02;77672.69;;;32.53
73673;BMP280;61972;19.480;-99.240;2023-06-14T02:39:31;77667.84;;;32.51
73673;BMP280;61972;19.480;-99.240;2023-06-14T02:41:57;77674.13;;;32.49
73673;BMP280;61972;19.480;-99.240;2023-06-14T02:44:29;77675.59;;;32.46
73673;BMP280;61972;19.480;-99.240;2023-06-14T02:46:55;77683.94;;;32.44
73673;BMP280;61972;19.480;-99.240;2023-06-14T02:49:22;77687.03;;;32.42
73673;BMP280;61972;19.480;-99.240;2023-06-14T02:51:48;77686.38;;;32.39
73673;BMP280;61972;19.480;-99.240;2023-06-14T02:54:14;77690.44;;;32.35
73673;BMP280;61972;19.480;-99.240;2023-06-14T02:56:40;77684.97;;;32.30
73673;BMP280;61972;19.480;-99.240;2023-06-14T02:59:07;77693.44;;;32.31
73673;BMP280;61972;19.480;-99.240;2023-06-14T03:01:34;77692.34;;;32.29
73673;BMP280;61972;19.480;-99.240;2023-06-14T03:04:02;77691.22;;;32.28
73673;BMP280;61972;19.480;-99.240;2023-06-14T03:06:29;77690.03;;;32.25
73673;BMP280;61972;19.480;-99.240;2023-06-14T03:08:57;77687.28;;;32.22
73673;BMP280;61972;19.480;-99.240;2023-06-14T03:11:27;77692.56;;;32.22
73673;BMP280;61972;19.480;-99.240;2023-06-14T03:13:55;77693.00;;;32.20
73673;BMP280;61972;19.480;-99.240;2023-06-14T03:16:22;77688.16;;;32.18
73673;BMP280;61972;19.480;-99.240;2023-06-14T03:18:53;77694.88;;;32.15
73673;BMP280;61972;19.480;-99.240;2023-06-14T03:21:19;77698.50;;;32.13
73673;BMP280;61972;19.480;-99.240;2023-06-14T03:23:48;77700.50;;;32.10
73673;BMP280;61972;19.480;-99.240;2023-06-14T03:26:15;77696.75;;;32.09
73673;BMP280;61972;19.480;-99.240;2023-06-14T03:28:46;77703.03;;;32.07
73673;BMP280;61972;19.480;-99.240;2023-06-14T03:31:14;77700.25;;;32.05
73673;BMP280;61972;19.480;-99.240;2023-06-14T03:33:40;77705.00;;;32.04
73673;BMP280;61972;19.480;-99.240;2023-06-14T03:36:07;77709.66;;;32.01
73673;BMP280;61972;19.480;-99.240;2023-06-14T03:38:33;77710.59;;;32.00
73673;BMP280;61972;19.480;-99.240;2023-06-14T03:40:59;77717.44;;;31.99
73673;BMP280;61972;19.480;-99.240;2023-06-14T03:43:26;77721.63;;;31.98
73673;BMP280;61972;19.480;-99.240;2023-06-14T03:45:52;77718.44;;;31.97
73673;BMP280;61972;19.480;-99.240;2023-06-14T03:48:19;77720.53;;;31.97
73673;BMP280;61972;19.480;-99.240;2023-06-14T03:50:45;77727.91;;;31.96
73673;BMP280;61972;19.480;-99.240;2023-06-14T03:53:12;77726.81;;;31.95
73673;BMP280;61972;19.480;-99.240;2023-06-14T03:55:39;77733.09;;;31.94
73673;BMP280;61972;19.480;-99.240;2023-06-14T03:58:05;77738.25;;;31.91
73673;BMP280;61972;19.480;-99.240;2023-06-14T04:00:34;77732.94;;;31.91
73673;BMP280;61972;19.480;-99.240;2023-06-14T04:03:01;77733.97;;;31.89
73673;BMP280;61972;19.480;-99.240;2023-06-14T04:05:29;77725.34;;;31.86
73673;BMP280;61972;19.480;-99.240;2023-06-14T04:07:55;77738.56;;;31.86
73673;BMP280;61972;19.480;-99.240;2023-06-14T04:10:22;77746.41;;;31.84
73673;BMP280;61972;19.480;-99.240;2023-06-14T04:12:48;77755.34;;;31.82
73673;BMP280;61972;19.480;-99.240;2023-06-14T04:15:15;77751.56;;;31.81
73673;BMP280;61972;19.480;-99.240;2023-06-14T04:17:41;77745.63;;;31.78
73673;BMP280;61972;19.480;-99.240;2023-06-14T04:20:07;77754.66;;;31.79
73673;BMP280;61972;19.480;-99.240;2023-06-14T04:22:35;77755.97;;;31.85
73673;BMP280;61972;19.480;-99.240;2023-06-14T04:25:02;77743.69;;;31.94
73673;BMP280;61972;19.480;-99.240;2023-06-14T04:27:29;77739.91;;;32.05
73673;BMP280;61972;19.480;-99.240;2023-06-14T04:29:57;77741.91;;;32.14
73673;BMP280;61972;19.480;-99.240;2023-06-14T04:32:32;77737.06;;;32.24
73673;BMP280;61972;19.480;-99.240;2023-06-14T04:35:21;77743.91;;;32.36
73673;BMP280;61972;19.480;-99.240;2023-06-14T04:37:49;77753.84;;;32.45
73673;BMP280;61972;19.480;-99.240;2023-06-14T04:40:17;77744.13;;;32.53
73673;BMP280;61972;19.480;-99.240;2023-06-14T04:42:43;77750.31;;;32.61
73673;BMP280;61972;19.480;-99.240;2023-06-14T04:45:10;77751.16;;;32.70
73673;BMP280;61972;19.480;-99.240;2023-06-14T04:47:36;77756.69;;;32.75
73673;BMP280;61972;19.480;-99.240;2023-06-14T04:50:03;77760.09;;;32.80
73673;BMP280;61972;19.480;-99.240;2023-06-14T04:52:29;77763.50;;;32.86
73673;BMP280;61972;19.480;-99.240;2023-06-14T04:54:56;77764.81;;;32.92
73673;BMP280;61972;19.480;-99.240;2023-06-14T04:57:22;77762.38;;;32.97
73673;BMP280;61972;19.480;-99.240;2023-06-14T04:59:51;77762.59;;;33.02
73673;BMP280;61972;19.480;-99.240;2023-06-14T05:02:21;77768.09;;;33.07
73673;BMP280;61972;19.480;-99.240;2023-06-14T05:04:49;77764.09;;;33.14
73673;BMP280;61972;19.480;-99.240;2023-06-14T05:07:15;77769.06;;;33.18
73673;BMP280;61972;19.480;-99.240;2023-06-14T05:09:41;77766.06;;;33.23
73673;BMP280;61972;19.480;-99.240;2023-06-14T05:12:08;77776.88;;;33.28
73673;BMP280;61972;19.480;-99.240;2023-06-14T05:14:35;77772.44;;;33.36
73673;BMP280;61972;19.480;-99.240;2023-06-14T05:17:02;77772.19;;;33.43
73673;BMP280;61972;19.480;-99.240;2023-06-14T05:19:31;77776.38;;;33.55
73673;BMP280;61972;19.480;-99.240;2023-06-14T05:21:57;77782.06;;;33.65
73673;BMP280;61972;19.480;-99.240;2023-06-14T05:24:23;77783.56;;;33.76
73673;BMP280;61972;19.480;-99.240;2023-06-14T05:26:50;77778.66;;;33.86
73673;BMP280;61972;19.480;-99.240;2023-06-14T05:29:16;77775.28;;;33.96
73673;BMP280;61972;19.480;-99.240;2023-06-14T05:31:42;77775.56;;;34.03
73673;BMP280;61972;19.480;-99.240;2023-06-14T05:34:08;77776.44;;;34.12
73673;BMP280;61972;19.480;-99.240;2023-06-14T05:36:35;77772.53;;;34.20
73673;BMP280;61972;19.480;-99.240;2023-06-14T05:39:02;77774.91;;;34.28
73673;BMP280;61972;19.480;-99.240;2023-06-14T05:41:30;77775.63;;;34.33
73673;BMP280;61972;19.480;-99.240;2023-06-14T05:43:56;77778.00;;;34.40
73673;BMP280;61972;19.480;-99.240;2023-06-14T05:46:23;77779.84;;;34.47
73673;BMP280;61972;19.480;-99.240;2023-06-14T05:48:52;77777.94;;;34.53
73673;BMP280;61972;19.480;-99.240;2023-06-14T05:51:19;77778.69;;;34.58
73673;BMP280;61972;19.480;-99.240;2023-06-14T05:53:49;77773.53;;;34.63
73673;BMP280;61972;19.480;-99.240;2023-06-14T05:56:16;77772.66;;;34.68
73673;BMP280;61972;19.480;-99.240;2023-06-14T05:58:45;77770.19;;;34.73
73673;BMP280;61972;19.480;-99.240;2023-06-14T06:01:12;77768.69;;;34.76
73673;BMP280;61972;19.480;-99.240;2023-06-14T06:03:39;77770.88;;;34.78
73673;BMP280;61972;19.480;-99.240;2023-06-14T06:06:05;77765.22;;;34.83
73673;BMP280;61972;19.480;-99.240;2023-06-14T06:08:33;77761.63;;;34.87
73673;BMP280;61972;19.480;-99.240;2023-06-14T06:10:59;77774.56;;;34.92
73673;BMP280;61972;19.480;-99.240;2023-06-14T06:13:27;77770.88;;;34.93
73673;BMP280;61972;19.480;-99.240;2023-06-14T06:15:53;77764.09;;;34.97
73673;BMP280;61972;19.480;-99.240;2023-06-14T06:18:19;77762.63;;;35.00
73673;BMP280;61972;19.480;-99.240;2023-06-14T06:20:45;77761.16;;;35.04
73673;BMP280;61972;19.480;-99.240;2023-06-14T06:23:12;77763.91;;;35.07
73673;BMP280;61972;19.480;-99.240;2023-06-14T06:25:39;77762.34;;;35.08
73673;BMP280;61972;19.480;-99.240;2023-06-14T06:28:05;77761.88;;;35.10
73673;BMP280;61972;19.480;-99.240;2023-06-14T06:30:31;77763.50;;;35.11
73673;BMP280;61972;19.480;-99.240;2023-06-14T06:33:01;77752.38;;;35.11
73673;BMP280;61972;19.480;-99.240;2023-06-14T06:35:29;77749.06;;;35.08
73673;BMP280;61972;19.480;-99.240;2023-06-14T06:38:00;77753.72;;;35.04
73673;BMP280;61972;19.480;-99.240;2023-06-14T06:40:26;77748.88;;;35.02
73673;BMP280;61972;19.480;-99.240;2023-06-14T06:42:52;77752.53;;;35.01
73673;BMP280;61972;19.480;-99.240;2023-06-14T06:45:20;77755.13;;;34.98
73673;BMP280;61972;19.480;-99.240;2023-06-14T06:47:46;77742.84;;;34.97
73673;BMP280;61972;19.480;-99.240;2023-06-14T06:50:12;77744.94;;;34.96
73673;BMP280;61972;19.480;-99.240;2023-06-14T06:52:38;77738.09;;;34.97
73673;BMP280;61972;19.480;-99.240;2023-06-14T06:55:04;77736.44;;;34.96
73673;BMP280;61972;19.480;-99.240;2023-06-14T06:57:31;77726.34;;;34.96
73673;BMP280;61972;19.480;-99.240;2023-06-14T06:59:57;77730.13;;;34.97
73673;BMP280;61972;19.480;-99.240;2023-06-14T07:02:23;77730.13;;;34.97
73673;BMP280;61972;19.480;-99.240;2023-06-14T07:04:49;77722.69;;;34.98
73673;BMP280;61972;19.480;-99.240;2023-06-14T07:07:17;77711.53;;;34.97
73673;BMP280;61972;19.480;-99.240;2023-06-14T07:09:44;77706.75;;;34.98
73673;BMP280;61972;19.480;-99.240;2023-06-14T07:12:11;77713.16;;;34.99
73673;BMP280;61972;19.480;-99.240;2023-06-14T07:14:37;77706.75;;;34.98
73673;BMP280;61972;19.480;-99.240;2023-06-14T07:17:03;77701.44;;;34.98
73673;BMP280;61972;19.480;-99.240;2023-06-14T07:19:30;77702.00;;;34.98
73673;BMP280;61972;19.480;-99.240;2023-06-14T07:21:59;77701.44;;;34.98
73673;BMP280;61972;19.480;-99.240;2023-06-14T07:24:25;77695.59;;;34.97
73673;BMP280;61972;19.480;-99.240;2023-06-14T07:26:53;77691.38;;;34.98
73673;BMP280;61972;19.480;-99.240;2023-06-14T07:29:20;77688.72;;;34.98
73673;BMP280;61972;19.480;-99.240;2023-06-14T07:31:47;77689.25;;;34.99
73673;BMP280;61972;19.480;-99.240;2023-06-14T07:34:13;77694.66;;;35.01
73673;BMP280;61972;19.480;-99.240;2023-06-14T07:36:39;77689.44;;;35.04
73673;BMP280;61972;19.480;-99.240;2023-06-14T07:39:05;77686.22;;;35.03
73673;BMP280;61972;19.480;-99.240;2023-06-14T07:41:33;77681.94;;;35.02
73673;BMP280;61972;19.480;-99.240;2023-06-14T07:43:59;77673.41;;;35.01
73673;BMP280;61972;19.480;-99.240;2023-06-14T07:46:25;77673.41;;;35.01
73673;BMP280;61972;19.480;-99.240;2023-06-14T07:48:51;77672.31;;;35.00
73673;BMP280;61972;19.480;-99.240;2023-06-14T07:51:17;77675.44;;;34.98
73673;BMP280;61972;19.480;-99.240;2023-06-14T07:53:43;77673.78;;;34.97
73673;BMP280;61972;19.480;-99.240;2023-06-14T07:56:13;77683.31;;;34.96
73673;BMP280;61972;19.480;-99.240;2023-06-14T07:58:39;77674.81;;;34.95
73673;BMP280;61972;19.480;-99.240;2023-06-14T08:01:06;77676.34;;;34.94
73673;BMP280;61972;19.480;-99.240;2023-06-14T08:03:33;77681.66;;;34.94
73673;BMP280;61972;19.480;-99.240;2023-06-14T08:06:00;77680.59;;;34.93
73673;BMP280;61972;19.480;-99.240;2023-06-14T08:08:26;77679.00;;;34.94
73673;BMP280;61972;19.480;-99.240;2023-06-14T08:11:03;77685.34;;;34.93
73673;BMP280;61972;19.480;-99.240;2023-06-14T08:13:29;77680.59;;;34.93
73673;BMP280;61972;19.480;-99.240;2023-06-14T08:15:55;77674.16;;;34.92
73673;BMP280;61972;19.480;-99.240;2023-06-14T08:18:22;77681.59;;;34.92
73673;BMP280;61972;19.480;-99.240;2023-06-14T08:20:51;77684.78;;;34.92
73673;BMP280;61972;19.480;-99.240;2023-06-14T08:23:17;77673.06;;;34.91
73673;BMP280;61972;19.480;-99.240;2023-06-14T08:25:45;77677.28;;;34.90
73673;BMP280;61972;19.480;-99.240;2023-06-14T08:28:11;77679.41;;;34.90
73673;BMP280;61972;19.480;-99.240;2023-06-14T08:30:37;77676.19;;;34.89
73673;BMP280;61972;19.480;-99.240;2023-06-14T08:33:03;77678.84;;;34.89
73673;BMP280;61972;19.480;-99.240;2023-06-14T08:35:29;77675.63;;;34.89
73673;BMP280;61972;19.480;-99.240;2023-06-14T08:37:55;77667.66;;;34.89
73673;BMP280;61972;19.480;-99.240;2023-06-14T08:40:24;77680.41;;;34.88
73673;BMP280;61972;19.480;-99.240;2023-06-14T08:42:54;77669.25;;;34.88
73673;BMP280;61972;19.480;-99.240;2023-06-14T08:45:21;77675.09;;;34.88
73673;BMP280;61972;19.480;-99.240;2023-06-14T08:47:49;77680.41;;;34.88
73673;BMP280;61972;19.480;-99.240;2023-06-14T08:50:24;77673.44;;;34.87
73673;BMP280;61972;19.480;-99.240;2023-06-14T08:52:57;77668.13;;;34.87
73673;BMP280;61972;19.480;-99.240;2023-06-14T08:55:27;77679.78;;;34.85
73673;BMP280;61972;19.480;-99.240;2023-06-14T08:57:55;77678.69;;;34.84
73673;BMP280;61972;19.480;-99.240;2023-06-14T09:00:24;77681.34;;;34.84
73673;BMP280;61972;19.480;-99.240;2023-06-14T09:02:52;77680.25;;;34.83
73673;BMP280;61972;19.480;-99.240;2023-06-14T09:05:26;77680.25;;;34.83
73673;BMP280;61972;19.480;-99.240;2023-06-14T09:07:53;77683.34;;;34.81
73673;BMP280;61972;19.480;-99.240;2023-06-14T09:10:21;77690.75;;;34.80
73673;BMP280;61972;19.480;-99.240;2023-06-14T09:12:47;77680.06;;;34.78
73673;BMP280;61972;19.480;-99.240;2023-06-14T09:15:14;77690.69;;;34.78
73673;BMP280;61972;19.480;-99.240;2023-06-14T09:17:43;77683.16;;;34.76
73673;BMP280;61972;19.480;-99.240;2023-06-14T09:20:09;77686.28;;;34.74
73673;BMP280;61972;19.480;-99.240;2023-06-14T09:22:43;77685.66;;;34.71
73673;BMP280;61972;19.480;-99.240;2023-06-14T09:25:09;77688.22;;;34.68
73673;BMP280;61972;19.480;-99.240;2023-06-14T09:27:36;77693.63;;;34.71
73673;BMP280;61972;19.480;-99.240;2023-06-14T09:30:06;77691.44;;;34.69
73673;BMP280;61972;19.480;-99.240;2023-06-14T09:32:38;77693.63;;;34.71
73673;BMP280;61972;19.480;-99.240;2023-06-14T09:35:09;77687.47;;;34.77
73673;BMP280;61972;19.480;-99.240;2023-06-14T09:37:35;77686.81;;;34.89
73673;BMP280;61972;19.480;-99.240;2023-06-14T09:40:04;77687.31;;;35.04
73673;BMP280;61972;19.480;-99.240;2023-06-14T09:42:31;77680.78;;;35.16
73673;BMP280;61972;19.480;-99.240;2023-06-14T09:44:57;77679.63;;;35.30
73673;BMP280;61972;19.480;-99.240;2023-06-14T09:47:24;77693.03;;;35.50
73673;BMP280;61972;19.480;-99.240;2023-06-14T09:49:51;77685.63;;;35.68
73673;BMP280;61972;19.480;-99.240;2023-06-14T09:52:21;77687.19;;;35.84
73673;BMP280;61972;19.480;-99.240;2023-06-14T09:54:48;77691.50;;;36.03
73673;BMP280;61972;19.480;-99.240;2023-06-14T09:57:25;77694.66;;;36.21
73673;BMP280;61972;19.480;-99.240;2023-06-14T09:59:57;77694.09;;;36.38
73673;BMP280;61972;19.480;-99.240;2023-06-14T10:05:02;77697.31;;;36.58
73673;BMP280;61972;19.480;-99.240;2023-06-14T10:10:13;77688.34;;;36.80
73673;BMP280;61972;19.480;-99.240;2023-06-14T10:12:40;77693.94;;;36.90
73673;BMP280;61972;19.480;-99.240;2023-06-14T10:15:09;77689.50;;;37.03
73673;BMP280;61972;19.480;-99.240;2023-06-14T10:17:44;77689.84;;;37.16
73673;BMP280;61972;19.480;-99.240;2023-06-14T10:20:35;77684.75;;;37.26
73673;BMP280;61972;19.480;-99.240;2023-06-14T10:23:23;77691.53;;;37.40
73673;BMP280;61972;19.480;-99.240;2023-06-14T10:25:54;77688.50;;;37.47
73673;BMP280;61972;19.480;-99.240;2023-06-14T10:28:22;77695.38;;;37.24
73673;BMP280;61972;19.480;-99.240;2023-06-14T10:31:10;77690.38;;;36.77
73673;BMP280;61972;19.480;-99.240;2023-06-14T10:33:48;77698.13;;;36.49
73673;BMP280;61972;19.480;-99.240;2023-06-14T10:36:29;77696.84;;;36.23
73673;BMP280;61972;19.480;-99.240;2023-06-14T10:39:07;77686.16;;;36.03
73673;BMP280;61972;19.480;-99.240;2023-06-14T10:41:41;77686.47;;;35.78
73673;BMP280;61972;19.480;-99.240;2023-06-14T10:46:54;77695.28;;;35.37
73673;BMP280;61972;19.480;-99.240;2023-06-14T10:49:36;77705.78;;;35.17
73673;BMP280;61972;19.480;-99.240;2023-06-14T10:52:16;77703.38;;;34.92
73673;BMP280;61972;19.480;-99.240;2023-06-14T10:55:06;77705.34;;;34.72
73673;BMP280;61972;19.480;-99.240;2023-06-14T10:57:42;77697.31;;;34.54
73673;BMP280;61972;19.480;-99.240;2023-06-14T11:00:09;77694.56;;;34.37
73673;BMP280;61972;19.480;-99.240;2023-06-14T11:05:49;77689.59;;;34.02
73673;BMP280;61972;19.480;-99.240;2023-06-14T11:09:29;77696.91;;;33.84
73673;BMP280;61972;19.480;-99.240;2023-06-14T11:11:32;77694.78;;;33.70
73673;BMP280;61972;19.480;-99.240;2023-06-14T11:14:00;77694.84;;;33.58
73673;BMP280;61972;19.480;-99.240;2023-06-14T11:16:27;77703.41;;;33.46
73673;BMP280;61972;19.480;-99.240;2023-06-14T11:18:54;77708.19;;;33.33
73673;BMP280;61972;19.480;-99.240;2023-06-14T11:21:20;77705.16;;;33.23
73673;BMP280;61972;19.480;-99.240;2023-06-14T11:23:50;77704.19;;;33.12
73673;BMP280;61972;19.480;-99.240;2023-06-14T11:26:31;77704.78;;;33.00
73673;BMP280;61972;19.480;-99.240;2023-06-14T11:29:01;77713.88;;;32.89
73673;BMP280;61972;19.480;-99.240;2023-06-14T11:31:28;77710.91;;;32.81
73673;BMP280;61972;19.480;-99.240;2023-06-14T11:33:59;77713.69;;;32.72
73673;BMP280;61972;19.480;-99.240;2023-06-14T11:36:29;77710.59;;;32.61
73673;BMP280;61972;19.480;-99.240;2023-06-14T11:39:03;77722.97;;;32.53
73673;BMP280;61972;19.480;-99.240;2023-06-14T11:41:44;77727.38;;;32.45
73673;BMP280;61972;19.480;-99.240;2023-06-14T11:44:11;77721.88;;;32.40
73673;BMP280;61972;19.480;-99.240;2023-06-14T11:46:37;77719.44;;;32.33
73673;BMP280;61972;19.480;-99.240;2023-06-14T11:49:04;77732.44;;;32.27
73673;BMP280;61972;19.480;-99.240;2023-06-14T11:51:36;77728.47;;;32.21
73673;BMP280;61972;19.480;-99.240;2023-06-14T11:54:03;77726.72;;;32.17
73673;BMP280;61972;19.480;-99.240;2023-06-14T11:56:31;77732.88;;;32.13
73673;BMP280;61972;19.480;-99.240;2023-06-14T11:58:57;77728.34;;;32.06
73673;BMP280;61972;19.480;-99.240;2023-06-14T12:01:24;77736.09;;;32.01
73673;BMP280;61972;19.480;-99.240;2023-06-14T12:03:53;77737.38;;;31.95
73673;BMP280;61972;19.480;-99.240;2023-06-14T12:06:30;77758.84;;;31.90
73673;BMP280;61972;19.480;-99.240;2023-06-14T12:09:05;77752.22;;;31.84
73673;BMP280;61972;19.480;-99.240;2023-06-14T12:11:36;77753.09;;;31.80
73673;BMP280;61972;19.480;-99.240;2023-06-14T12:14:05;77749.69;;;31.75
73673;BMP280;61972;19.480;-99.240;2023-06-14T12:16:37;77757.94;;;31.70
73673;BMP280;61972;19.480;-99.240;2023-06-14T12:19:16;77752.97;;;31.65
73673;BMP280;61972;19.480;-99.240;2023-06-14T12:21:45;77758.56;;;31.61
73673;BMP280;61972;19.480;-99.240;2023-06-14T12:24:15;77752.63;;;31.58
73673;BMP280;61972;19.480;-99.240;2023-06-14T12:26:42;77755.03;;;31.52
73673;BMP280;61972;19.480;-99.240;2023-06-14T12:29:08;77754.34;;;31.49
73673;BMP280;61972;19.480;-99.240;2023-06-14T12:31:37;77752.56;;;31.45
73673;BMP280;61972;19.480;-99.240;2023-06-14T12:34:04;77759.28;;;31.42
73673;BMP280;61972;19.480;-99.240;2023-06-14T12:36:30;77760.69;;;31.38
73673;BMP280;61972;19.480;-99.240;2023-06-14T12:38:57;77761.13;;;31.36
73673;BMP280;61972;19.480;-99.240;2023-06-14T12:41:23;77759.34;;;31.32
73673;BMP280;61972;19.480;-99.240;2023-06-14T12:43:50;77765.63;;;31.30
73673;BMP280;61972;19.480;-99.240;2023-06-14T12:46:17;77769.09;;;31.26
73673;BMP280;61972;19.480;-99.240;2023-06-14T12:48:43;77770.53;;;31.23
73673;BMP280;61972;19.480;-99.240;2023-06-14T12:51:09;77767.22;;;31.20
73673;BMP280;61972;19.480;-99.240;2023-06-14T12:53:35;77769.75;;;31.17
73673;BMP280;61972;19.480;-99.240;2023-06-14T12:56:01;77765.88;;;31.13
73673;BMP280;61972;19.480;-99.240;2023-06-14T12:58:27;77769.50;;;31.12
73673;BMP280;61972;19.480;-99.240;2023-06-14T13:00:53;77782.56;;;31.09
73673;BMP280;61972;19.480;-99.240;2023-06-14T13:03:20;77777.16;;;31.07
73673;BMP280;61972;19.480;-99.240;2023-06-14T13:05:46;77782.34;;;31.04
73673;BMP280;61972;19.480;-99.240;2023-06-14T13:08:12;77780.13;;;31.02
73673;BMP280;61972;19.480;-99.240;2023-06-14T13:10:39;77782.09;;;30.99
73673;BMP280;61972;19.480;-99.240;2023-06-14T13:13:05;77786.25;;;30.98
73673;BMP280;61972;19.480;-99.240;2023-06-14T13:15:33;77793.06;;;30.97
73673;BMP280;61972;19.480;-99.240;2023-06-14T13:17:59;77787.69;;;30.95
73673;BMP280;61972;19.480;-99.240;2023-06-14T13:20:25;77786.00;;;30.93
73673;BMP280;61972;19.480;-99.240;2023-06-14T13:22:51;77789.09;;;30.91
73673;BMP280;61972;19.480;-99.240;2023-06-14T13:25:18;77793.25;;;30.90
73673;BMP280;61972;19.480;-99.240;2023-06-14T13:27:44;77801.59;;;30.88
73673;BMP280;61972;19.480;-99.240;2023-06-14T13:30:11;77802.16;;;30.88
73673;BMP280;61972;19.480;-99.240;2023-06-14T13:32:37;77805.75;;;30.87
73673;BMP280;61972;19.480;-99.240;2023-06-14T13:35:03;77807.31;;;30.86
73673;BMP280;61972;19.480;-99.240;2023-06-14T13:37:30;77797.72;;;30.84
73673;BMP280;61972;19.480;-99.240;2023-06-14T13:39:56;77801.34;;;30.83
73673;BMP280;61972;19.480;-99.240;2023-06-14T13:42:22;77805.50;;;30.82
73673;BMP280;61972;19.480;-99.240;2023-06-14T13:44:48;77807.03;;;30.81
73673;BMP280;61972;19.480;-99.240;2023-06-14T13:47:16;77809.66;;;30.81
73673;BMP280;61972;19.480;-99.240;2023-06-14T13:49:42;77810.78;;;30.82
73673;BMP280;61972;19.480;-99.240;2023-06-14T13:52:09;77816.06;;;30.82
73673;BMP280;61972;19.480;-99.240;2023-06-14T13:54:35;77808.03;;;30.79
73673;BMP280;61972;19.480;-99.240;2023-06-14T13:57:02;77810.13;;;30.79
73673;BMP280;61972;19.480;-99.240;2023-06-14T13:59:28;77812.19;;;30.78
73673;BMP280;61972;19.480;-99.240;2023-06-14T14:01:54;77818.03;;;30.79
73673;BMP280;61972;19.480;-99.240;2023-06-14T14:04:20;77814.31;;;30.78